Time;durP1;ratioP1;P1;durP2;ratioP2;P2;SDS_P1;SDS_P2;PMS_P1;PMS_P2;Temp;Humidity;BMP_temperature;BMP_pressure;BME280_temperature;BME280_humidity;BME280_pressure;Samples;Min_cycle;Max_cycle;Signal;HPM_P1;HPM_P2
2023/05/01 00:00:56;;;;;;;2.03;1.40;;;17.00;67.40;;;;;;5051240;28;20313;-78
2023/05/01 00:03:22;;;;;;;2.65;1.42;;;16.90;67.50;;;;;;5037644;28;20044;-77
2023/05/01 00:05:48;;;;;;;2.73;1.57;;;16.90;67.60;;;;;;5057636;28;20032;-78
2023/05/01 00:08:14;;;;;;;2.58;1.55;;;16.80;67.60;;;;;;5044766;28;20204;-78
2023/05/01 00:10:40;;;;;;;1.98;1.50;;;16.80;67.80;;;;;;5046248;28;20035;-78
2023/05/01 00:13:06;;;;;;;2.08;1.60;;;16.80;68.00;;;;;;5033184;28;20115;-78
2023/05/01 00:15:32;;;;;;;1.90;1.50;;;16.80;68.10;;;;;;5056681;28;20131;-78
2023/05/01 00:17:58;;;;;;;2.20;1.50;;;16.70;68.30;;;;;;5045475;28;20599;-78
2023/05/01 00:20:28;;;;;;;2.03;1.52;;;16.70;68.40;;;;;;5056325;28;20504;-77
2023/05/01 00:22:54;;;;;;;1.73;1.33;;;16.70;68.80;;;;;;5045612;28;20078;-78
2023/05/01 00:25:20;;;;;;;1.80;1.30;;;16.70;68.70;;;;;;5045367;28;20032;-78
2023/05/01 00:27:47;;;;;;;2.38;1.42;;;16.60;68.80;;;;;;5036420;28;20040;-78
2023/05/01 00:30:13;;;;;;;2.15;1.60;;;16.60;69.00;;;;;;5051964;28;20609;-78
2023/05/01 00:32:39;;;;;;;1.95;1.50;;;16.60;69.10;;;;;;5032900;28;20424;-77
2023/05/01 00:35:05;;;;;;;2.10;1.50;;;16.50;69.20;;;;;;5038321;28;20184;-77
2023/05/01 00:37:31;;;;;;;1.98;1.52;;;16.50;69.30;;;;;;5055142;28;20536;-77
2023/05/01 00:39:56;;;;;;;1.93;1.30;;;16.40;69.20;;;;;;5032703;28;20253;-77
2023/05/01 00:42:22;;;;;;;2.17;1.60;;;16.40;69.30;;;;;;5057652;28;20025;-77
2023/05/01 00:44:48;;;;;;;2.17;1.53;;;16.40;69.50;;;;;;5031307;28;20024;-77
2023/05/01 00:47:13;;;;;;;2.38;1.48;;;16.40;69.60;;;;;;5054336;28;20104;-77
2023/05/01 00:49:41;;;;;;;2.30;1.60;;;16.40;69.60;;;;;;5045088;28;20032;-77
2023/05/01 00:52:08;;;;;;;2.53;1.55;;;16.40;69.80;;;;;;5054895;28;20020;-77
2023/05/01 00:54:35;;;;;;;2.20;1.50;;;16.40;69.70;;;;;;5048154;28;20021;-77
2023/05/01 00:57:01;;;;;;;2.45;1.42;;;16.40;69.70;;;;;;5041542;28;20236;-77
2023/05/01 00:59:27;;;;;;;1.80;1.40;;;16.40;69.70;;;;;;5033428;28;20035;-77
2023/05/01 01:01:54;;;;;;;2.42;1.50;;;16.40;69.90;;;;;;5053164;28;20023;-77
2023/05/01 01:04:21;;;;;;;1.60;1.27;;;16.40;70.00;;;;;;5059361;28;20051;-77
2023/05/01 01:07:05;;;;;;;2.03;1.55;;;16.30;70.00;;;;;;5050002;28;20024;-77
2023/05/01 01:09:40;;;;;;;3.00;1.50;;;16.40;70.30;;;;;;5044773;28;20443;-77
2023/05/01 01:12:25;;;;;;;2.70;1.47;;;16.30;70.40;;;;;;5046963;28;20127;-77
2023/05/01 01:15:16;;;;;;;1.83;1.25;;;16.30;71.30;;;;;;5036680;28;20032;-77
2023/05/01 01:17:58;;;;;;;2.28;1.27;;;16.30;71.30;;;;;;5060918;28;20536;-77
2023/05/01 01:20:48;;;;;;;1.48;1.38;;;16.30;71.30;;;;;;5049845;28;20024;-77
2023/05/01 01:23:58;;;;;;;2.55;1.55;;;16.20;71.10;;;;;;5055609;28;20348;-77
2023/05/01 01:26:27;;;;;;;1.80;1.30;;;16.30;71.80;;;;;;5023956;28;20401;-77
2023/05/01 01:29:32;;;;;;;1.77;1.48;;;16.20;70.80;;;;;;5027444;28;20066;-77
2023/05/01 01:32:32;;;;;;;1.55;1.20;;;16.20;72.10;;;;;;5054681;28;21086;-77
2023/05/01 01:35:05;;;;;;;2.58;1.38;;;16.10;72.00;;;;;;5043861;28;21611;-77
2023/05/01 01:37:47;;;;;;;2.45;1.67;;;16.10;71.70;;;;;;5058793;28;20062;-77
2023/05/01 01:40:17;;;;;;;1.57;1.40;;;16.10;72.20;;;;;;5058393;28;20752;-77
2023/05/01 01:42:55;;;;;;;2.15;1.42;;;16.10;71.70;;;;;;5040289;28;20028;-77
2023/05/01 01:45:24;;;;;;;2.17;1.40;;;16.10;72.30;;;;;;5039502;28;20514;-77
2023/05/01 01:47:53;;;;;;;1.92;1.30;;;16.00;72.00;;;;;;5028865;28;20071;-77
2023/05/01 01:50:21;;;;;;;2.10;1.60;;;16.00;72.20;;;;;;5058086;28;20090;-77
2023/05/01 01:52:49;;;;;;;2.03;1.57;;;16.00;72.20;;;;;;5051479;28;20375;-77
2023/05/01 01:55:19;;;;;;;2.08;1.42;;;16.00;72.30;;;;;;5058997;28;20706;-77
2023/05/01 01:57:46;;;;;;;2.03;1.58;;;15.90;72.30;;;;;;5034088;28;20112;-77
2023/05/01 02:00:13;;;;;;;2.13;1.58;;;15.90;72.40;;;;;;5056104;28;20474;-77
2023/05/01 02:02:39;;;;;;;1.90;1.60;;;15.90;72.30;;;;;;5038564;28;20028;-77
2023/05/01 02:05:13;;;;;;;2.67;1.70;;;15.90;72.40;;;;;;5060003;28;20054;-77
2023/05/01 02:07:40;;;;;;;1.90;1.50;;;15.90;72.80;;;;;;5049287;28;21163;-77
2023/05/01 02:10:08;;;;;;;2.45;1.60;;;15.90;72.50;;;;;;5054911;28;20048;-77
2023/05/01 02:12:35;;;;;;;2.88;1.52;;;15.90;72.60;;;;;;5049701;28;20036;-77
2023/05/01 02:15:02;;;;;;;2.10;1.50;;;15.80;72.50;;;;;;5040708;28;20028;-76
2023/05/01 02:17:29;;;;;;;2.07;1.50;;;15.80;72.70;;;;;;5039210;28;20039;-76
2023/05/01 02:19:56;;;;;;;2.25;1.60;;;15.80;72.80;;;;;;5061285;28;20103;-77
2023/05/01 02:22:24;;;;;;;1.70;1.40;;;15.80;72.80;;;;;;5054112;28;20065;-77
2023/05/01 02:24:53;;;;;;;2.67;1.60;;;15.70;72.80;;;;;;5057696;28;20020;-77
2023/05/01 02:27:36;;;;;;;1.67;1.50;;;15.80;73.00;;;;;;5058486;28;20020;-77
2023/05/01 02:30:04;;;;;;;2.10;1.40;;;15.70;74.00;;;;;;5035228;28;20305;-77
2023/05/01 02:32:30;;;;;;;2.03;1.45;;;15.70;73.10;;;;;;5038050;28;20036;-76
2023/05/01 02:34:56;;;;;;;2.10;1.58;;;15.70;73.10;;;;;;5059903;28;20286;-77
2023/05/01 02:37:22;;;;;;;2.70;1.52;;;15.70;73.20;;;;;;5061599;28;20017;-77
2023/05/01 02:39:48;;;;;;;2.33;1.33;;;15.70;73.30;;;;;;5049059;28;20100;-77
2023/05/01 02:42:15;;;;;;;1.90;1.40;;;15.70;73.40;;;;;;5054198;28;20024;-77
2023/05/01 02:44:56;;;;;;;1.80;1.40;;;15.60;73.50;;;;;;5045000;28;20036;-77
2023/05/01 02:47:22;;;;;;;1.88;1.40;;;15.60;74.50;;;;;;5037616;28;20426;-77
2023/05/01 02:49:50;;;;;;;1.90;1.50;;;15.60;73.80;;;;;;5055212;28;20082;-78
2023/05/01 02:52:18;;;;;;;1.98;1.35;;;15.60;74.00;;;;;;5057177;28;20055;-77
2023/05/01 02:54:44;;;;;;;2.55;1.55;;;15.60;74.00;;;;;;5048413;28;20058;-77
2023/05/01 02:57:11;;;;;;;2.58;1.50;;;15.60;74.00;;;;;;5057105;28;20218;-77
2023/05/01 02:59:37;;;;;;;1.85;1.58;;;15.60;74.30;;;;;;5050067;28;20081;-77
2023/05/01 03:02:03;;;;;;;2.00;1.53;;;15.60;74.30;;;;;;5041307;28;20025;-77
2023/05/01 03:04:28;;;;;;;2.20;1.63;;;15.50;74.30;;;;;;5036180;28;20032;-77
2023/05/01 03:06:55;;;;;;;3.05;1.70;;;15.50;74.20;;;;;;5054100;28;20063;-77
2023/05/01 03:09:21;;;;;;;1.63;1.40;;;15.50;74.30;;;;;;5057404;28;20178;-77
2023/05/01 03:11:47;;;;;;;3.28;1.70;;;15.50;74.30;;;;;;5046831;28;20182;-77
2023/05/01 03:14:13;;;;;;;2.55;1.70;;;15.40;74.30;;;;;;5048425;28;20307;-77
2023/05/01 03:16:39;;;;;;;1.80;1.53;;;15.40;74.40;;;;;;5041616;28;20681;-77
2023/05/01 03:19:05;;;;;;;2.65;1.55;;;15.40;74.40;;;;;;5033060;28;20457;-77
2023/05/01 03:21:32;;;;;;;2.47;1.50;;;15.30;74.50;;;;;;5059160;28;20478;-77
2023/05/01 03:23:58;;;;;;;3.10;1.70;;;15.30;74.50;;;;;;5059495;28;20804;-77
2023/05/01 03:26:26;;;;;;;2.83;1.60;;;15.30;74.50;;;;;;5047766;28;20502;-77
2023/05/01 03:28:51;;;;;;;2.70;1.60;;;15.30;74.60;;;;;;5049691;28;20508;-77
2023/05/01 03:31:18;;;;;;;2.80;1.90;;;15.20;74.50;;;;;;5035900;28;20048;-77
2023/05/01 03:33:44;;;;;;;2.25;1.70;;;15.20;74.50;;;;;;5049401;28;20519;-77
2023/05/01 03:36:12;;;;;;;3.03;1.80;;;15.20;74.50;;;;;;5045065;28;20025;-77
2023/05/01 03:38:38;;;;;;;2.37;1.70;;;15.20;74.70;;;;;;5058669;28;20477;-77
2023/05/01 03:41:04;;;;;;;2.83;1.95;;;15.20;74.80;;;;;;5053764;28;20233;-77
2023/05/01 03:43:30;;;;;;;2.70;1.92;;;15.10;74.80;;;;;;5052285;28;20680;-77
2023/05/01 03:45:57;;;;;;;2.53;2.00;;;15.10;74.80;;;;;;5046725;28;20043;-77
2023/05/01 03:48:23;;;;;;;2.53;1.83;;;15.10;74.90;;;;;;5045828;28;20043;-77
2023/05/01 03:50:52;;;;;;;2.00;1.67;;;15.10;75.00;;;;;;5034796;28;20042;-77
2023/05/01 03:53:18;;;;;;;2.38;1.80;;;15.10;75.10;;;;;;5057144;28;20025;-77
2023/05/01 03:55:44;;;;;;;3.50;1.92;;;15.10;75.10;;;;;;5056293;28;20078;-77
2023/05/01 03:58:09;;;;;;;2.70;1.70;;;15.00;75.20;;;;;;5049619;28;20055;-77
2023/05/01 04:00:36;;;;;;;2.35;1.90;;;15.10;75.30;;;;;;5057445;28;20036;-77
2023/05/01 04:03:03;;;;;;;2.53;1.88;;;15.10;75.50;;;;;;5033934;28;20101;-77
2023/05/01 04:05:29;;;;;;;4.18;1.80;;;15.00;75.50;;;;;;5031335;28;20051;-77
2023/05/01 04:07:55;;;;;;;3.23;1.70;;;15.00;75.50;;;;;;5056618;28;20591;-77
2023/05/01 04:10:21;;;;;;;2.40;1.80;;;15.00;75.50;;;;;;5055881;28;20027;-77
2023/05/01 04:12:47;;;;;;;2.50;1.67;;;15.00;75.60;;;;;;5049506;28;20074;-77
2023/05/01 04:15:13;;;;;;;2.13;1.80;;;15.00;75.70;;;;;;5045437;28;20337;-77
2023/05/01 04:17:39;;;;;;;2.73;1.87;;;14.90;75.80;;;;;;5044156;28;20024;-77
2023/05/01 04:20:05;;;;;;;2.70;1.95;;;14.90;75.90;;;;;;5050662;28;20106;-77
2023/05/01 04:22:32;;;;;;;1.77;1.63;;;14.90;76.00;;;;;;5036495;28;20036;-76
2023/05/01 04:24:58;;;;;;;2.20;1.77;;;14.80;76.10;;;;;;5054304;28;20321;-77
2023/05/01 04:27:24;;;;;;;2.30;1.60;;;14.80;77.00;;;;;;5057063;28;20059;-77
2023/05/01 04:29:50;;;;;;;2.50;1.88;;;14.80;76.30;;;;;;5044235;28;20440;-77
2023/05/01 04:32:16;;;;;;;2.85;1.92;;;14.80;76.50;;;;;;5042199;28;20086;-77
2023/05/01 04:34:45;;;;;;;3.73;2.03;;;14.80;76.50;;;;;;5052847;28;20673;-77
2023/05/01 04:37:11;;;;;;;2.45;1.80;;;14.70;76.70;;;;;;5039917;28;20292;-76
2023/05/01 04:39:36;;;;;;;2.22;1.80;;;14.80;76.80;;;;;;5064268;28;20485;-77
2023/05/01 04:42:03;;;;;;;2.30;1.73;;;14.70;76.90;;;;;;5059937;28;20161;-77
2023/05/01 04:44:29;;;;;;;3.28;1.90;;;14.70;77.00;;;;;;5045896;28;20611;-77
2023/05/01 04:46:55;;;;;;;2.40;1.85;;;14.70;77.10;;;;;;5046363;28;20592;-76
2023/05/01 04:49:21;;;;;;;2.67;2.00;;;14.70;77.20;;;;;;5043012;28;20035;-77
2023/05/01 04:51:47;;;;;;;3.03;1.87;;;14.70;77.40;;;;;;5040527;28;20505;-77
2023/05/01 04:54:13;;;;;;;3.03;2.00;;;14.70;77.40;;;;;;5056532;28;20033;-77
2023/05/01 04:56:39;;;;;;;2.37;1.60;;;14.70;77.50;;;;;;5060177;28;20154;-77
2023/05/01 04:59:05;;;;;;;2.47;1.93;;;14.70;77.70;;;;;;5059414;28;20287;-77
2023/05/01 05:01:30;;;;;;;2.90;1.58;;;14.70;77.80;;;;;;5053842;28;20246;-77
2023/05/01 05:03:56;;;;;;;2.30;1.60;;;14.70;78.00;;;;;;5021797;28;20213;-77
2023/05/01 05:06:22;;;;;;;2.80;1.63;;;14.70;78.00;;;;;;5057960;28;20119;-77
2023/05/01 05:08:50;;;;;;;2.03;1.50;;;14.70;78.10;;;;;;5034070;28;20059;-77
2023/05/01 05:11:17;;;;;;;3.03;1.60;;;14.70;78.20;;;;;;5064970;28;20031;-76
2023/05/01 05:13:44;;;;;;;2.75;1.70;;;14.70;78.30;;;;;;5060246;28;20033;-77
2023/05/01 05:16:10;;;;;;;1.70;1.52;;;14.70;78.30;;;;;;5048446;28;20020;-77
2023/05/01 05:18:37;;;;;;;2.60;1.63;;;14.70;78.40;;;;;;5040873;28;20195;-77
2023/05/01 05:21:07;;;;;;;1.80;1.40;;;14.70;78.50;;;;;;5057583;28;20039;-76
2023/05/01 05:23:33;;;;;;;2.50;1.57;;;14.70;78.80;;;;;;5031745;28;20357;-77
2023/05/01 05:26:00;;;;;;;1.92;1.60;;;14.80;78.60;;;;;;5052978;28;20024;-77
2023/05/01 05:28:29;;;;;;;2.22;1.60;;;14.80;78.70;;;;;;5055649;28;20114;-76
2023/05/01 05:30:55;;;;;;;2.22;1.63;;;14.70;79.00;;;;;;5048052;28;20036;-77
2023/05/01 05:33:23;;;;;;;2.10;1.65;;;14.80;79.00;;;;;;5033860;28;20400;-76
2023/05/01 05:35:50;;;;;;;1.70;1.60;;;14.80;79.00;;;;;;5055255;28;20028;-77
2023/05/01 05:38:16;;;;;;;2.60;2.10;;;14.80;79.10;;;;;;5034832;28;20116;-76
2023/05/01 05:40:42;;;;;;;4.15;3.20;;;14.80;79.10;;;;;;5059924;28;20099;-77
2023/05/01 05:43:09;;;;;;;7.30;4.20;;;14.90;79.10;;;;;;5058683;28;20551;-77
2023/05/01 05:45:36;;;;;;;3.60;2.80;;;14.90;79.20;;;;;;5058555;28;20030;-77
2023/05/01 05:48:02;;;;;;;4.13;2.40;;;14.90;79.40;;;;;;5047128;28;20336;-77
2023/05/01 05:50:28;;;;;;;3.33;2.20;;;14.90;79.40;;;;;;5041015;28;20452;-77
2023/05/01 05:52:54;;;;;;;2.33;1.87;;;15.00;79.50;;;;;;5035508;28;20809;-77
2023/05/01 05:55:21;;;;;;;3.00;2.08;;;15.00;79.60;;;;;;5059595;28;20028;-77
2023/05/01 05:57:46;;;;;;;2.42;1.95;;;15.10;79.80;;;;;;5056594;28;20025;-77
2023/05/01 06:00:13;;;;;;;3.20;1.98;;;15.10;79.90;;;;;;5046886;28;20031;-77
2023/05/01 06:02:39;;;;;;;2.77;2.00;;;15.20;79.90;;;;;;5047587;28;20603;-77
2023/05/01 06:05:05;;;;;;;2.30;1.90;;;15.20;79.80;;;;;;5037505;28;20060;-77
2023/05/01 06:07:31;;;;;;;3.78;1.90;;;15.30;79.90;;;;;;5054304;28;20064;-77
2023/05/01 06:10:04;;;;;;;2.33;1.90;;;15.40;80.00;;;;;;5037940;28;20035;-77
2023/05/01 06:12:30;;;;;;;2.80;1.98;;;15.40;80.00;;;;;;5056359;28;20766;-77
2023/05/01 06:14:59;;;;;;;2.75;1.98;;;15.50;80.40;;;;;;5040754;28;20474;-77
2023/05/01 06:17:25;;;;;;;2.10;1.88;;;15.60;80.20;;;;;;5050186;28;20407;-77
2023/05/01 06:19:52;;;;;;;3.37;1.93;;;15.60;80.20;;;;;;5037919;28;20032;-77
2023/05/01 06:22:20;;;;;;;2.83;2.08;;;15.70;80.40;;;;;;5055901;28;20103;-77
2023/05/01 06:24:46;;;;;;;2.75;1.90;;;15.80;80.60;;;;;;5024337;28;20102;-76
2023/05/01 06:27:12;;;;;;;2.88;2.00;;;15.80;80.50;;;;;;5057841;28;20671;-77
2023/05/01 06:29:38;;;;;;;3.00;1.90;;;15.90;80.50;;;;;;5057835;28;20046;-77
2023/05/01 06:32:04;;;;;;;4.20;2.97;;;16.00;80.40;;;;;;5059113;28;20049;-76
2023/05/01 06:34:30;;;;;;;3.60;2.65;;;16.10;80.40;;;;;;5044601;28;20024;-77
2023/05/01 06:36:56;;;;;;;4.50;3.10;;;16.20;80.30;;;;;;5040330;28;20041;-77
2023/05/01 06:39:22;;;;;;;4.45;2.88;;;16.20;80.30;;;;;;5032076;28;20056;-78
2023/05/01 06:41:48;;;;;;;4.22;2.42;;;16.30;80.20;;;;;;5046644;28;20115;-78
2023/05/01 06:44:14;;;;;;;3.40;2.28;;;16.40;80.30;;;;;;5056430;28;20086;-77
2023/05/01 06:46:40;;;;;;;3.47;2.13;;;16.40;80.30;;;;;;5058451;28;20047;-78
2023/05/01 06:49:06;;;;;;;3.45;2.30;;;16.60;80.40;;;;;;5031568;28;20013;-78
2023/05/01 06:51:32;;;;;;;3.20;2.30;;;16.60;80.30;;;;;;5038405;28;20838;-77
2023/05/01 06:53:58;;;;;;;2.50;2.10;;;16.70;80.30;;;;;;5057495;28;20028;-77
2023/05/01 06:56:24;;;;;;;2.83;2.08;;;16.80;80.30;;;;;;5031884;28;20083;-77
2023/05/01 06:58:49;;;;;;;2.47;2.00;;;16.90;80.30;;;;;;5057699;28;20508;-78
2023/05/01 07:01:16;;;;;;;3.35;2.30;;;17.00;80.10;;;;;;5056122;28;20642;-78
2023/05/01 07:03:42;;;;;;;3.07;2.10;;;17.00;80.00;;;;;;5057063;28;20133;-77
2023/05/01 07:06:08;;;;;;;4.63;2.30;;;17.10;79.60;;;;;;5046655;28;20464;-78
2023/05/01 07:08:34;;;;;;;3.35;2.17;;;17.20;79.50;;;;;;5039992;28;20020;-77
2023/05/01 07:11:00;;;;;;;2.67;2.07;;;17.20;79.40;;;;;;5036775;28;20604;-77
2023/05/01 07:13:26;;;;;;;4.30;2.15;;;17.30;79.50;;;;;;5056881;28;20099;-77
2023/05/01 07:15:52;;;;;;;3.40;2.17;;;17.30;79.50;;;;;;5055355;28;20507;-77
2023/05/01 07:18:18;;;;;;;2.78;2.20;;;17.40;79.50;;;;;;5048491;28;20481;-78
2023/05/01 07:20:44;;;;;;;3.73;2.10;;;17.50;79.50;;;;;;5048310;28;20140;-77
2023/05/01 07:23:10;;;;;;;3.00;2.30;;;17.50;79.50;;;;;;5039506;28;20015;-77
2023/05/01 07:25:40;;;;;;;2.90;2.23;;;17.60;79.50;;;;;;5030436;28;20047;-78
2023/05/01 07:28:06;;;;;;;3.47;2.35;;;17.70;79.50;;;;;;5043508;28;20067;-77
2023/05/01 07:30:35;;;;;;;3.60;2.20;;;17.80;79.30;;;;;;5052465;28;20216;-79
2023/05/01 07:33:01;;;;;;;4.22;2.17;;;17.80;79.10;;;;;;5058569;28;20038;-78
2023/05/01 07:35:27;;;;;;;3.78;2.40;;;17.90;79.10;;;;;;5050679;28;20119;-79
2023/05/01 07:37:53;;;;;;;3.60;2.17;;;18.00;79.10;;;;;;5033099;28;20036;-77
2023/05/01 07:40:19;;;;;;;3.40;2.30;;;18.00;79.20;;;;;;5038292;28;20028;-78
2023/05/01 07:42:45;;;;;;;3.20;1.90;;;18.10;79.50;;;;;;5052058;28;20031;-78
2023/05/01 07:45:11;;;;;;;3.20;2.25;;;18.30;79.80;;;;;;5054509;28;20063;-79
2023/05/01 07:47:37;;;;;;;3.80;2.30;;;18.40;80.00;;;;;;5052480;28;20228;-77
2023/05/01 07:50:03;;;;;;;3.42;2.42;;;18.60;80.00;;;;;;5052573;28;20045;-79
2023/05/01 07:52:31;;;;;;;2.78;2.10;;;18.70;79.50;;;;;;5006757;28;20110;-79
2023/05/01 07:54:57;;;;;;;4.37;2.53;;;18.80;78.90;;;;;;5054861;28;20056;-80
2023/05/01 07:57:23;;;;;;;3.67;2.50;;;19.00;78.90;;;;;;5034484;28;20046;-78
2023/05/01 07:59:54;;;;;;;3.90;2.88;;;19.10;78.60;;;;;;5059205;28;20089;-77
2023/05/01 08:02:19;;;;;;;3.87;2.93;;;19.20;78.00;;;;;;5053611;28;20379;-78
2023/05/01 08:04:47;;;;;;;3.85;3.03;;;19.20;78.10;;;;;;5055819;28;20390;-77
2023/05/01 08:07:13;;;;;;;4.35;2.88;;;19.30;77.50;;;;;;5045265;28;20068;-79
2023/05/01 08:09:38;;;;;;;3.80;3.30;;;19.30;77.20;;;;;;5034377;28;20548;-78
2023/05/01 08:12:04;;;;;;;4.20;2.90;;;19.40;77.20;;;;;;5035751;28;20042;-77
2023/05/01 08:14:30;;;;;;;4.13;3.15;;;19.40;77.00;;;;;;5054369;28;20265;-78
2023/05/01 08:16:56;;;;;;;4.50;3.03;;;19.40;77.70;;;;;;5060459;28;20044;-77
2023/05/01 08:19:22;;;;;;;4.10;3.20;;;19.30;76.60;;;;;;5054846;28;20020;-78
2023/05/01 08:21:48;;;;;;;4.53;3.00;;;19.30;76.30;;;;;;5042712;28;20017;-79
2023/05/01 08:24:13;;;;;;;4.40;3.10;;;19.30;76.80;;;;;;5030218;28;20045;-80
2023/05/01 08:26:39;;;;;;;4.95;3.80;;;19.30;76.10;;;;;;5061075;28;20033;-78
2023/05/01 08:29:07;;;;;;;4.47;3.40;;;19.20;75.70;;;;;;5038507;28;20028;-78
2023/05/01 08:31:36;;;;;;;5.13;3.67;;;19.20;75.90;;;;;;5058291;28;20045;-78
2023/05/01 08:34:02;;;;;;;5.57;3.60;;;19.10;75.90;;;;;;5050344;28;20032;-78
2023/05/01 08:36:30;;;;;;;4.63;3.50;;;19.00;75.90;;;;;;5056029;28;20017;-78
2023/05/01 08:38:56;;;;;;;4.97;3.60;;;19.00;76.10;;;;;;5054250;28;20040;-77
2023/05/01 08:41:22;;;;;;;4.27;3.40;;;19.00;76.10;;;;;;5037792;28;20056;-79
2023/05/01 08:43:48;;;;;;;5.20;3.40;;;19.00;76.20;;;;;;5038950;28;20517;-77
2023/05/01 08:46:44;;;;;;;4.60;3.47;;;19.00;76.30;;;;;;5041114;28;20043;-81
2023/05/01 08:49:14;;;;;;;4.90;3.70;;;19.00;75.40;;;;;;5060409;28;20653;-78
2023/05/01 08:51:43;;;;;;;5.85;3.60;;;18.90;75.90;;;;;;5052504;28;20028;-79
2023/05/01 08:54:10;;;;;;;4.90;3.65;;;19.00;76.00;;;;;;5053663;28;20075;-80
2023/05/01 08:56:38;;;;;;;4.80;3.80;;;19.00;76.20;;;;;;5033450;28;20025;-78
2023/05/01 08:59:04;;;;;;;6.40;4.03;;;19.00;76.00;;;;;;5039056;28;20060;-79
2023/05/01 09:01:32;;;;;;;5.30;3.90;;;19.00;76.10;;;;;;5056106;28;20023;-78
2023/05/01 09:04:02;;;;;;;6.45;4.00;;;19.00;75.90;;;;;;5058795;28;20059;-78
2023/05/01 09:06:28;;;;;;;6.05;4.10;;;19.00;76.10;;;;;;5037276;28;20321;-78
2023/05/01 09:08:54;;;;;;;5.85;4.07;;;19.00;76.40;;;;;;5059479;28;20074;-78
2023/05/01 09:11:23;;;;;;;5.80;4.25;;;19.00;76.60;;;;;;5029262;28;20032;-78
2023/05/01 09:13:51;;;;;;;5.30;3.90;;;19.10;76.60;;;;;;5041518;28;20032;-78
2023/05/01 09:16:17;;;;;;;6.70;4.55;;;19.20;77.00;;;;;;5031842;28;20549;-78
2023/05/01 09:18:44;;;;;;;5.97;4.50;;;19.20;77.00;;;;;;5055717;28;20565;-78
2023/05/01 09:21:11;;;;;;;6.10;4.45;;;19.30;77.00;;;;;;5057397;28;20029;-78
2023/05/01 09:23:37;;;;;;;6.03;4.35;;;19.40;77.20;;;;;;5057240;28;20705;-78
2023/05/01 09:26:07;;;;;;;5.77;4.33;;;19.50;77.20;;;;;;5050180;28;20028;-77
2023/05/01 09:28:40;;;;;;;5.35;4.25;;;19.60;76.90;;;;;;5037705;28;20792;-76
2023/05/01 09:31:24;;;;;;;5.90;4.47;;;19.70;76.70;;;;;;5031750;28;20080;-77
2023/05/01 09:33:55;;;;;;;6.68;4.72;;;19.80;76.50;;;;;;5057029;28;20046;-78
2023/05/01 09:36:26;;;;;;;5.75;4.90;;;19.90;77.00;;;;;;5051187;28;20115;-79
2023/05/01 09:38:52;;;;;;;6.87;4.77;;;20.10;77.60;;;;;;5058754;28;20383;-80
2023/05/01 09:41:19;;;;;;;6.78;5.10;;;20.20;78.00;;;;;;5047368;28;20013;-79
2023/05/01 09:43:56;;;;;;;6.88;5.30;;;20.40;78.20;;;;;;5013952;28;20032;-79
2023/05/01 09:46:23;;;;;;;6.75;4.85;;;20.60;77.30;;;;;;5040496;28;20029;-79
2023/05/01 09:49:00;;;;;;;7.00;5.68;;;20.70;78.50;;;;;;5048082;28;20086;-78
2023/05/01 09:51:30;;;;;;;6.07;5.30;;;21.00;77.70;;;;;;5060239;28;20032;-79
2023/05/01 09:54:01;;;;;;;7.13;5.60;;;21.20;77.80;;;;;;5056442;28;20252;-79
2023/05/01 09:56:31;;;;;;;8.38;5.82;;;21.40;78.70;;;;;;5048815;28;20031;-83
2023/05/01 09:58:59;;;;;;;8.30;6.10;;;21.60;77.60;;;;;;5034924;28;20161;-89
2023/05/01 10:01:38;;;;;;;7.82;6.25;;;21.70;76.60;;;;;;5042353;28;20016;-81
2023/05/01 10:04:04;;;;;;;8.30;6.13;;;21.80;74.60;;;;;;5032549;28;20224;-84
2023/05/01 10:06:30;;;;;;;8.13;6.60;;;21.90;75.60;;;;;;5056274;28;20032;-80
2023/05/01 10:08:56;;;;;;;9.25;6.88;;;21.90;75.00;;;;;;5034576;28;22876;-80
2023/05/01 10:11:22;;;;;;;10.15;7.43;;;21.80;74.30;;;;;;5047184;28;20110;-80
2023/05/01 10:14:08;;;;;;;9.37;7.07;;;21.70;74.10;;;;;;5026532;28;20119;-80
2023/05/01 10:16:35;;;;;;;9.27;6.68;;;21.60;72.70;;;;;;5049396;28;20029;-84
2023/05/01 10:19:02;;;;;;;9.10;6.78;;;21.50;73.60;;;;;;5015838;28;20017;-81
2023/05/01 10:21:30;;;;;;;8.57;6.82;;;21.40;73.50;;;;;;5046905;28;20031;-83
2023/05/01 10:23:56;;;;;;;9.65;6.85;;;21.30;73.20;;;;;;5028875;28;20108;-80
2023/05/01 10:26:25;;;;;;;9.20;6.83;;;21.20;73.10;;;;;;5037788;28;20038;-84
2023/05/01 10:28:51;;;;;;;8.93;6.80;;;21.10;73.10;;;;;;5038181;28;20029;-80
2023/05/01 10:31:17;;;;;;;8.75;6.88;;;21.00;73.00;;;;;;5037577;28;20048;-80
2023/05/01 10:33:44;;;;;;;9.25;7.10;;;20.90;73.00;;;;;;5035889;28;20274;-82
2023/05/01 10:36:19;;;;;;;9.67;7.30;;;20.70;72.80;;;;;;5055088;28;20657;-81
2023/05/01 10:38:47;;;;;;;10.00;7.40;;;20.60;72.40;;;;;;5048354;28;20625;-80
2023/05/01 10:41:15;;;;;;;9.73;7.15;;;20.50;72.90;;;;;;5060464;28;20016;-82
2023/05/01 10:43:42;;;;;;;9.18;7.07;;;20.40;72.90;;;;;;5041734;28;20319;-85
2023/05/01 10:46:20;;;;;;;11.18;7.03;;;20.30;73.70;;;;;;5049559;28;20064;-80
2023/05/01 10:48:45;;;;;;;10.50;7.17;;;20.20;73.10;;;;;;5055976;28;20139;-79
2023/05/01 10:51:19;;;;;;;9.55;6.80;;;20.10;73.50;;;;;;5029752;28;20034;-80
2023/05/01 10:53:46;;;;;;;10.27;7.38;;;20.10;73.90;;;;;;5053307;28;20028;-77
2023/05/01 10:56:35;;;;;;;12.33;7.30;;;20.00;73.90;;;;;;5050010;28;20613;-79
2023/05/01 10:59:04;;;;;;;10.15;7.30;;;20.00;73.70;;;;;;5057325;28;20045;-80
2023/05/01 11:01:41;;;;;;;9.35;7.10;;;20.00;74.30;;;;;;5037972;28;20477;-80
2023/05/01 11:04:20;;;;;;;11.35;7.45;;;20.10;74.40;;;;;;5039282;28;20397;-79
2023/05/01 11:07:04;;;;;;;10.45;7.72;;;20.10;74.40;;;;;;5030204;28;20020;-83
2023/05/01 11:10:01;;;;;;;10.77;7.00;;;20.10;74.70;;;;;;5041289;28;20021;-80
2023/05/01 11:12:45;;;;;;;9.45;6.63;;;20.10;74.90;;;;;;5041495;28;20239;-81
2023/05/01 11:15:32;;;;;;;10.35;6.80;;;20.20;74.90;;;;;;5051711;28;20085;-81
2023/05/01 11:18:02;;;;;;;9.52;7.03;;;20.30;75.00;;;;;;5060415;28;20032;-81
2023/05/01 11:20:28;;;;;;;8.48;6.47;;;20.40;75.40;;;;;;5051371;28;20516;-80
2023/05/01 11:22:57;;;;;;;8.57;6.27;;;20.50;76.10;;;;;;5057573;28;20056;-80
2023/05/01 11:25:29;;;;;;;10.13;6.63;;;20.60;76.00;;;;;;5045354;28;20046;-80
2023/05/01 11:27:57;;;;;;;9.68;6.35;;;20.80;76.30;;;;;;5049091;28;20127;-79
2023/05/01 11:30:23;;;;;;;9.67;6.87;;;21.00;76.80;;;;;;5039693;28;20448;-79
2023/05/01 11:32:50;;;;;;;8.25;6.18;;;21.20;76.70;;;;;;5042401;28;20409;-79
2023/05/01 11:35:18;;;;;;;8.52;6.47;;;21.40;76.80;;;;;;5052454;28;20200;-78
2023/05/01 11:37:45;;;;;;;9.52;6.88;;;21.60;76.90;;;;;;5020973;28;20033;-80
2023/05/01 11:40:21;;;;;;;8.25;6.65;;;21.80;77.00;;;;;;5038241;28;20174;-78
2023/05/01 11:42:49;;;;;;;9.17;6.63;;;22.00;75.80;;;;;;5046133;28;20093;-78
2023/05/01 11:45:15;;;;;;;8.50;6.78;;;22.30;77.50;;;;;;5049102;28;20029;-77
2023/05/01 11:47:41;;;;;;;8.32;6.65;;;22.50;77.20;;;;;;5032878;28;20090;-80
2023/05/01 11:50:08;;;;;;;9.07;6.72;;;22.80;78.30;;;;;;5055996;28;20578;-78
2023/05/01 11:52:48;;;;;;;9.20;6.40;;;23.20;78.40;;;;;;5033377;28;20044;-79
2023/05/01 11:55:15;;;;;;;7.75;5.80;;;23.60;76.80;;;;;;5056731;28;20037;-78
2023/05/01 11:57:59;;;;;;;9.23;6.78;;;23.90;78.60;;;;;;5040001;28;20696;-80
2023/05/01 12:00:36;;;;;;;15.82;6.82;;;24.20;75.50;;;;;;5032367;28;20457;-81
2023/05/01 12:03:06;;;;;;;10.30;6.20;;;24.60;75.60;;;;;;5047856;28;20415;-80
2023/05/01 12:05:35;;;;;;;9.00;6.33;;;24.80;77.00;;;;;;5070876;28;20021;-79
2023/05/01 12:08:17;;;;;;;10.23;7.63;;;25.20;78.10;;;;;;5039307;28;20040;-79
2023/05/01 12:10:44;;;;;;;8.93;7.30;;;25.60;75.90;;;;;;5072527;28;20025;-78
2023/05/01 12:13:12;;;;;;;8.18;7.07;;;25.80;74.80;;;;;;5035530;28;20473;-79
2023/05/01 12:15:44;;;;;;;10.13;7.25;;;25.90;73.00;;;;;;5048334;28;20905;-77
2023/05/01 12:18:12;;;;;;;8.70;6.70;;;25.80;70.40;;;;;;5035261;28;20024;-78
2023/05/01 12:20:43;;;;;;;8.52;6.63;;;25.70;70.10;;;;;;5056034;28;20091;-77
2023/05/01 12:23:11;;;;;;;8.88;6.82;;;25.50;68.60;;;;;;5038872;28;20673;-78
2023/05/01 12:25:38;;;;;;;8.30;6.53;;;25.30;69.00;;;;;;5055072;28;20029;-77
2023/05/01 12:28:15;;;;;;;9.38;7.03;;;25.10;68.80;;;;;;5046321;28;20032;-81
2023/05/01 12:30:42;;;;;;;7.83;6.30;;;25.00;68.00;;;;;;5058167;28;20044;-80
2023/05/01 12:33:15;;;;;;;8.43;6.63;;;24.90;68.70;;;;;;5032569;28;20036;-80
2023/05/01 12:35:46;;;;;;;8.93;6.72;;;24.80;68.60;;;;;;5058215;28;20039;-79
2023/05/01 12:38:15;;;;;;;8.90;7.05;;;24.70;68.90;;;;;;5016985;28;20025;-80
2023/05/01 12:40:58;;;;;;;8.77;7.00;;;24.70;68.90;;;;;;5054533;28;20031;-79
2023/05/01 12:43:32;;;;;;;8.43;6.63;;;24.60;67.70;;;;;;5047531;28;20245;-80
2023/05/01 12:45:58;;;;;;;8.32;6.60;;;24.50;68.60;;;;;;5035515;28;20173;-79
2023/05/01 12:48:24;;;;;;;8.75;6.30;;;24.50;69.50;;;;;;5030698;28;20569;-78
2023/05/01 12:50:53;;;;;;;7.82;6.20;;;24.50;69.10;;;;;;5038833;28;20029;-80
2023/05/01 12:53:24;;;;;;;7.43;6.15;;;24.40;68.90;;;;;;5053716;28;20029;-82